sensor_id;sensor_type;location;lat;lon;timestamp;P1;durP1;ratioP1;P2;durP2;ratioP2
10351;SDS011;5222;49.324;8.420;2022-08-23T00:02:00;1013.15;;;946.97;;
10351;SDS011;5222;49.324;8.420;2022-08-23T00:04:31;1015.60;;;949.15;;
10351;SDS011;5222;49.324;8.420;2022-08-23T00:07:01;1026.47;;;959.35;;
10351;SDS011;5222;49.324;8.420;2022-08-23T00:09:29;1016.88;;;949.95;;
10351;SDS011;5222;49.324;8.420;2022-08-23T00:12:02;1030.38;;;963.08;;
10351;SDS011;5222;49.324;8.420;2022-08-23T00:14:34;1022.38;;;954.67;;
10351;SDS011;5222;49.324;8.420;2022-08-23T00:17:03;1023.58;;;956.38;;
10351;SDS011;5222;49.324;8.420;2022-08-23T00:19:32;1029.90;;;962.60;;
10351;SDS011;5222;49.324;8.420;2022-08-23T00:21:59;1027.35;;;960.30;;
10351;SDS011;5222;49.324;8.420;2022-08-23T00:24:27;1030.25;;;962.85;;
10351;SDS011;5222;49.324;8.420;2022-08-23T00:26:55;1020.58;;;954.58;;
10351;SDS011;5222;49.324;8.420;2022-08-23T00:29:30;1031.72;;;963.90;;
10351;SDS011;5222;49.324;8.420;2022-08-23T00:32:00;1021.20;;;955.20;;
10351;SDS011;5222;49.324;8.420;2022-08-23T00:34:27;1019.20;;;952.33;;
10351;SDS011;5222;49.324;8.420;2022-08-23T00:36:55;1032.97;;;965.80;;
10351;SDS011;5222;49.324;8.420;2022-08-23T00:39:22;1029.93;;;962.50;;
10351;SDS011;5222;49.324;8.420;2022-08-23T00:41:49;1022.15;;;955.72;;
10351;SDS011;5222;49.324;8.420;2022-08-23T00:44:18;1026.03;;;957.92;;
10351;SDS011;5222;49.324;8.420;2022-08-23T00:47:08;1025.95;;;958.80;;
10351;SDS011;5222;49.324;8.420;2022-08-23T00:50:06;1028.68;;;961.28;;
10351;SDS011;5222;49.324;8.420;2022-08-23T00:52:43;1021.33;;;955.05;;
10351;SDS011;5222;49.324;8.420;2022-08-23T00:55:14;1020.30;;;954.37;;
10351;SDS011;5222;49.324;8.420;2022-08-23T00:57:42;1022.22;;;955.63;;
10351;SDS011;5222;49.324;8.420;2022-08-23T01:00:09;1015.38;;;949.33;;
10351;SDS011;5222;49.324;8.420;2022-08-23T01:02:37;1017.47;;;950.35;;
10351;SDS011;5222;49.324;8.420;2022-08-23T01:05:06;1024.43;;;957.83;;
10351;SDS011;5222;49.324;8.420;2022-08-23T01:07:35;1020.77;;;954.63;;
10351;SDS011;5222;49.324;8.420;2022-08-23T01:10:12;1021.20;;;953.93;;
10351;SDS011;5222;49.324;8.420;2022-08-23T01:12:44;1033.90;;;965.50;;
10351;SDS011;5222;49.324;8.420;2022-08-23T01:15:15;1026.95;;;959.85;;
10351;SDS011;5222;49.324;8.420;2022-08-23T01:17:48;1029.68;;;961.60;;
10351;SDS011;5222;49.324;8.420;2022-08-23T01:20:20;1028.15;;;960.60;;
10351;SDS011;5222;49.324;8.420;2022-08-23T01:22:51;1025.57;;;957.22;;
10351;SDS011;5222;49.324;8.420;2022-08-23T01:25:25;1032.10;;;963.53;;
10351;SDS011;5222;49.324;8.420;2022-08-23T01:27:54;1025.45;;;958.50;;
10351;SDS011;5222;49.324;8.420;2022-08-23T01:30:22;1027.70;;;959.90;;
10351;SDS011;5222;49.324;8.420;2022-08-23T01:32:52;1029.97;;;962.08;;
10351;SDS011;5222;49.324;8.420;2022-08-23T01:35:23;1017.95;;;951.15;;
10351;SDS011;5222;49.324;8.420;2022-08-23T01:37:57;1022.53;;;955.58;;
10351;SDS011;5222;49.324;8.420;2022-08-23T01:40:25;1020.90;;;953.22;;
10351;SDS011;5222;49.324;8.420;2022-08-23T01:42:52;1024.50;;;957.08;;
10351;SDS011;5222;49.324;8.420;2022-08-23T01:45:19;1024.95;;;958.30;;
10351;SDS011;5222;49.324;8.420;2022-08-23T01:47:46;1021.63;;;954.22;;
10351;SDS011;5222;49.324;8.420;2022-08-23T01:50:13;1018.80;;;952.53;;
10351;SDS011;5222;49.324;8.420;2022-08-23T01:52:40;1023.28;;;956.40;;
10351;SDS011;5222;49.324;8.420;2022-08-23T01:55:09;1023.75;;;957.13;;
10351;SDS011;5222;49.324;8.420;2022-08-23T01:57:37;1029.90;;;963.05;;
10351;SDS011;5222;49.324;8.420;2022-08-23T02:00:07;1012.13;;;946.15;;
10351;SDS011;5222;49.324;8.420;2022-08-23T02:02:35;1021.45;;;955.17;;
10351;SDS011;5222;49.324;8.420;2022-08-23T02:05:02;1017.72;;;951.85;;
10351;SDS011;5222;49.324;8.420;2022-08-23T02:07:31;1028.30;;;961.23;;
10351;SDS011;5222;49.324;8.420;2022-08-23T02:09:58;1026.45;;;960.10;;
10351;SDS011;5222;49.324;8.420;2022-08-23T02:12:25;1026.53;;;959.00;;
10351;SDS011;5222;49.324;8.420;2022-08-23T02:14:53;1033.18;;;966.33;;
10351;SDS011;5222;49.324;8.420;2022-08-23T02:17:20;1032.40;;;964.75;;
10351;SDS011;5222;49.324;8.420;2022-08-23T02:19:48;1037.72;;;969.40;;
10351;SDS011;5222;49.324;8.420;2022-08-23T02:22:15;1038.03;;;969.22;;
10351;SDS011;5222;49.324;8.420;2022-08-23T02:24:43;1036.93;;;967.97;;
10351;SDS011;5222;49.324;8.420;2022-08-23T02:27:12;1020.05;;;952.80;;
10351;SDS011;5222;49.324;8.420;2022-08-23T02:29:40;1039.20;;;970.92;;
10351;SDS011;5222;49.324;8.420;2022-08-23T02:32:10;1025.15;;;957.58;;
10351;SDS011;5222;49.324;8.420;2022-08-23T02:34:40;1028.20;;;960.00;;
10351;SDS011;5222;49.324;8.420;2022-08-23T02:37:07;1030.33;;;963.47;;
10351;SDS011;5222;49.324;8.420;2022-08-23T02:39:35;1030.17;;;962.67;;
10351;SDS011;5222;49.324;8.420;2022-08-23T02:42:03;1034.30;;;966.53;;
10351;SDS011;5222;49.324;8.420;2022-08-23T02:44:30;1024.85;;;957.67;;
10351;SDS011;5222;49.324;8.420;2022-08-23T02:46:58;1032.55;;;964.58;;
10351;SDS011;5222;49.324;8.420;2022-08-23T02:49:26;1023.58;;;956.55;;
10351;SDS011;5222;49.324;8.420;2022-08-23T02:51:54;1032.53;;;965.25;;
10351;SDS011;5222;49.324;8.420;2022-08-23T02:54:21;1034.03;;;965.33;;
10351;SDS011;5222;49.324;8.420;2022-08-23T02:56:48;1041.93;;;972.90;;
10351;SDS011;5222;49.324;8.420;2022-08-23T02:59:15;1037.28;;;969.08;;
10351;SDS011;5222;49.324;8.420;2022-08-23T03:01:44;1026.68;;;959.33;;
10351;SDS011;5222;49.324;8.420;2022-08-23T03:04:12;1045.73;;;975.57;;
10351;SDS011;5222;49.324;8.420;2022-08-23T03:06:40;1037.73;;;970.63;;
10351;SDS011;5222;49.324;8.420;2022-08-23T03:09:07;1028.18;;;961.20;;
10351;SDS011;5222;49.324;8.420;2022-08-23T03:11:36;1028.15;;;961.03;;
10351;SDS011;5222;49.324;8.420;2022-08-23T03:14:08;1051.80;;;980.83;;
10351;SDS011;5222;49.324;8.420;2022-08-23T03:16:35;1038.05;;;970.38;;
10351;SDS011;5222;49.324;8.420;2022-08-23T03:19:02;1042.78;;;974.22;;
10351;SDS011;5222;49.324;8.420;2022-08-23T03:21:29;1036.95;;;968.28;;
10351;SDS011;5222;49.324;8.420;2022-08-23T03:23:57;1043.30;;;974.33;;
10351;SDS011;5222;49.324;8.420;2022-08-23T03:26:25;1034.90;;;967.70;;
10351;SDS011;5222;49.324;8.420;2022-08-23T03:28:52;1045.18;;;976.13;;
10351;SDS011;5222;49.324;8.420;2022-08-23T03:31:19;1032.78;;;964.83;;
10351;SDS011;5222;49.324;8.420;2022-08-23T03:33:45;1053.32;;;983.80;;
10351;SDS011;5222;49.324;8.420;2022-08-23T03:36:12;1045.07;;;975.75;;
10351;SDS011;5222;49.324;8.420;2022-08-23T03:38:40;1047.57;;;977.95;;
10351;SDS011;5222;49.324;8.420;2022-08-23T03:41:08;1048.10;;;978.83;;
10351;SDS011;5222;49.324;8.420;2022-08-23T03:43:36;1044.38;;;975.00;;
10351;SDS011;5222;49.324;8.420;2022-08-23T03:46:06;1046.00;;;977.05;;
10351;SDS011;5222;49.324;8.420;2022-08-23T03:48:33;1035.43;;;967.17;;
10351;SDS011;5222;49.324;8.420;2022-08-23T03:51:00;1032.70;;;964.58;;
10351;SDS011;5222;49.324;8.420;2022-08-23T03:53:27;1041.55;;;973.42;;
10351;SDS011;5222;49.324;8.420;2022-08-23T03:55:54;1038.53;;;970.50;;
10351;SDS011;5222;49.324;8.420;2022-08-23T03:58:23;1021.92;;;955.20;;
10351;SDS011;5222;49.324;8.420;2022-08-23T04:00:53;1036.78;;;969.78;;
10351;SDS011;5222;49.324;8.420;2022-08-23T04:03:21;1041.33;;;973.03;;
10351;SDS011;5222;49.324;8.420;2022-08-23T04:05:50;1032.75;;;965.30;;
10351;SDS011;5222;49.324;8.420;2022-08-23T04:08:18;1027.32;;;961.00;;
10351;SDS011;5222;49.324;8.420;2022-08-23T04:10:47;1032.00;;;965.35;;
10351;SDS011;5222;49.324;8.420;2022-08-23T04:13:14;1045.15;;;975.60;;
10351;SDS011;5222;49.324;8.420;2022-08-23T04:15:42;1042.20;;;973.25;;
10351;SDS011;5222;49.324;8.420;2022-08-23T04:18:09;1034.22;;;965.45;;
10351;SDS011;5222;49.324;8.420;2022-08-23T04:20:35;1035.82;;;967.70;;
10351;SDS011;5222;49.324;8.420;2022-08-23T04:23:03;1032.15;;;963.72;;
10351;SDS011;5222;49.324;8.420;2022-08-23T04:25:30;1035.68;;;967.33;;
10351;SDS011;5222;49.324;8.420;2022-08-23T04:27:57;1043.13;;;974.67;;
10351;SDS011;5222;49.324;8.420;2022-08-23T04:30:24;1037.68;;;969.15;;
10351;SDS011;5222;49.324;8.420;2022-08-23T04:32:52;1041.63;;;973.00;;
10351;SDS011;5222;49.324;8.420;2022-08-23T04:35:19;1040.28;;;970.10;;
10351;SDS011;5222;49.324;8.420;2022-08-23T04:37:46;1032.55;;;964.13;;
10351;SDS011;5222;49.324;8.420;2022-08-23T04:40:13;1035.82;;;966.75;;
10351;SDS011;5222;49.324;8.420;2022-08-23T04:42:57;1033.63;;;964.53;;
10351;SDS011;5222;49.324;8.420;2022-08-23T04:45:24;1062.45;;;989.00;;
10351;SDS011;5222;49.324;8.420;2022-08-23T04:47:53;1035.88;;;967.42;;
10351;SDS011;5222;49.324;8.420;2022-08-23T04:50:20;1043.97;;;975.63;;
10351;SDS011;5222;49.324;8.420;2022-08-23T04:52:49;1043.88;;;974.58;;
10351;SDS011;5222;49.324;8.420;2022-08-23T04:55:18;1037.65;;;969.28;;
10351;SDS011;5222;49.324;8.420;2022-08-23T04:57:46;1035.68;;;966.88;;
10351;SDS011;5222;49.324;8.420;2022-08-23T05:00:13;1032.55;;;964.78;;
10351;SDS011;5222;49.324;8.420;2022-08-23T05:02:41;1040.38;;;971.80;;
10351;SDS011;5222;49.324;8.420;2022-08-23T05:05:11;1033.97;;;965.35;;
10351;SDS011;5222;49.324;8.420;2022-08-23T05:07:38;1028.13;;;959.47;;
10351;SDS011;5222;49.324;8.420;2022-08-23T05:10:08;1030.18;;;962.00;;
10351;SDS011;5222;49.324;8.420;2022-08-23T05:12:37;1026.28;;;958.15;;
10351;SDS011;5222;49.324;8.420;2022-08-23T05:15:04;1029.10;;;960.30;;
10351;SDS011;5222;49.324;8.420;2022-08-23T05:17:34;1034.38;;;964.53;;
10351;SDS011;5222;49.324;8.420;2022-08-23T05:20:02;1040.18;;;970.72;;
10351;SDS011;5222;49.324;8.420;2022-08-23T05:22:34;1040.25;;;970.97;;
10351;SDS011;5222;49.324;8.420;2022-08-23T05:25:03;1036.20;;;967.23;;
10351;SDS011;5222;49.324;8.420;2022-08-23T05:27:30;1035.53;;;967.10;;
10351;SDS011;5222;49.324;8.420;2022-08-23T05:29:57;1031.82;;;962.95;;
10351;SDS011;5222;49.324;8.420;2022-08-23T05:32:24;1020.42;;;952.40;;
10351;SDS011;5222;49.324;8.420;2022-08-23T05:34:51;1023.50;;;953.63;;
10351;SDS011;5222;49.324;8.420;2022-08-23T05:37:17;1019.40;;;951.47;;
10351;SDS011;5222;49.324;8.420;2022-08-23T05:39:46;1027.28;;;958.25;;
10351;SDS011;5222;49.324;8.420;2022-08-23T05:42:13;1027.78;;;958.75;;
10351;SDS011;5222;49.324;8.420;2022-08-23T05:44:41;1010.00;;;942.47;;
10351;SDS011;5222;49.324;8.420;2022-08-23T05:47:09;1021.28;;;952.80;;
10351;SDS011;5222;49.324;8.420;2022-08-23T05:49:38;1017.95;;;950.05;;
10351;SDS011;5222;49.324;8.420;2022-08-23T05:52:06;1022.80;;;953.97;;
10351;SDS011;5222;49.324;8.420;2022-08-23T05:54:35;1014.53;;;946.55;;
10351;SDS011;5222;49.324;8.420;2022-08-23T05:57:04;1021.42;;;952.30;;
10351;SDS011;5222;49.324;8.420;2022-08-23T05:59:31;1008.67;;;940.63;;
10351;SDS011;5222;49.324;8.420;2022-08-23T06:01:59;1000.15;;;932.88;;
10351;SDS011;5222;49.324;8.420;2022-08-23T06:04:26;1013.17;;;944.55;;
10351;SDS011;5222;49.324;8.420;2022-08-23T06:06:57;999.23;;;931.97;;
10351;SDS011;5222;49.324;8.420;2022-08-23T06:09:23;1000.78;;;932.60;;
10351;SDS011;5222;49.324;8.420;2022-08-23T06:11:51;1003.92;;;936.55;;
10351;SDS011;5222;49.324;8.420;2022-08-23T06:14:19;1008.50;;;940.65;;
10351;SDS011;5222;49.324;8.420;2022-08-23T06:16:47;992.15;;;926.13;;
10351;SDS011;5222;49.324;8.420;2022-08-23T06:19:15;1003.05;;;936.85;;
10351;SDS011;5222;49.324;8.420;2022-08-23T06:21:42;990.25;;;924.08;;
10351;SDS011;5222;49.324;8.420;2022-08-23T06:24:09;986.30;;;918.22;;
10351;SDS011;5222;49.324;8.420;2022-08-23T06:26:38;985.58;;;918.42;;
10351;SDS011;5222;49.324;8.420;2022-08-23T06:29:08;988.70;;;920.78;;
10351;SDS011;5222;49.324;8.420;2022-08-23T06:31:39;995.33;;;927.75;;
10351;SDS011;5222;49.324;8.420;2022-08-23T06:34:14;999.53;;;931.30;;
10351;SDS011;5222;49.324;8.420;2022-08-23T06:36:45;993.97;;;927.27;;
10351;SDS011;5222;49.324;8.420;2022-08-23T06:39:13;998.93;;;931.90;;
10351;SDS011;5222;49.324;8.420;2022-08-23T06:41:41;990.85;;;925.05;;
10351;SDS011;5222;49.324;8.420;2022-08-23T06:44:08;1001.50;;;932.73;;
10351;SDS011;5222;49.324;8.420;2022-08-23T06:46:36;1009.47;;;942.13;;
10351;SDS011;5222;49.324;8.420;2022-08-23T06:49:07;1001.27;;;934.07;;
10351;SDS011;5222;49.324;8.420;2022-08-23T06:51:35;989.25;;;923.05;;
10351;SDS011;5222;49.324;8.420;2022-08-23T06:54:04;996.13;;;927.70;;
10351;SDS011;5222;49.324;8.420;2022-08-23T06:56:32;997.10;;;929.92;;
10351;SDS011;5222;49.324;8.420;2022-08-23T06:59:00;1002.23;;;934.43;;
10351;SDS011;5222;49.324;8.420;2022-08-23T07:01:31;983.72;;;915.42;;
10351;SDS011;5222;49.324;8.420;2022-08-23T07:04:00;823.17;;;760.83;;
10351;SDS011;5222;49.324;8.420;2022-08-23T07:06:29;819.33;;;758.72;;
10351;SDS011;5222;49.324;8.420;2022-08-23T07:08:56;800.93;;;741.33;;
10351;SDS011;5222;49.324;8.420;2022-08-23T07:11:24;808.57;;;747.43;;
10351;SDS011;5222;49.324;8.420;2022-08-23T07:13:56;808.75;;;746.65;;
10351;SDS011;5222;49.324;8.420;2022-08-23T07:16:25;801.33;;;741.43;;
10351;SDS011;5222;49.324;8.420;2022-08-23T07:18:51;791.33;;;732.08;;
10351;SDS011;5222;49.324;8.420;2022-08-23T07:21:19;788.72;;;729.00;;
10351;SDS011;5222;49.324;8.420;2022-08-23T07:23:47;801.72;;;740.30;;
10351;SDS011;5222;49.324;8.420;2022-08-23T07:26:14;791.60;;;731.28;;
10351;SDS011;5222;49.324;8.420;2022-08-23T07:28:43;840.23;;;776.40;;
10351;SDS011;5222;49.324;8.420;2022-08-23T07:31:12;794.33;;;734.28;;
10351;SDS011;5222;49.324;8.420;2022-08-23T07:33:40;789.75;;;730.05;;
10351;SDS011;5222;49.324;8.420;2022-08-23T07:36:08;797.20;;;737.90;;
10351;SDS011;5222;49.324;8.420;2022-08-23T07:38:35;796.70;;;736.90;;
10351;SDS011;5222;49.324;8.420;2022-08-23T07:41:03;799.92;;;740.63;;
10351;SDS011;5222;49.324;8.420;2022-08-23T07:43:30;798.90;;;737.97;;
10351;SDS011;5222;49.324;8.420;2022-08-23T07:45:58;804.33;;;744.35;;
10351;SDS011;5222;49.324;8.420;2022-08-23T07:48:25;805.28;;;744.42;;
10351;SDS011;5222;49.324;8.420;2022-08-23T07:50:53;811.85;;;750.55;;
10351;SDS011;5222;49.324;8.420;2022-08-23T07:53:21;812.72;;;751.78;;
10351;SDS011;5222;49.324;8.420;2022-08-23T07:55:48;824.60;;;762.83;;
10351;SDS011;5222;49.324;8.420;2022-08-23T07:58:17;802.47;;;742.53;;
10351;SDS011;5222;49.324;8.420;2022-08-23T08:00:44;813.05;;;752.83;;
10351;SDS011;5222;49.324;8.420;2022-08-23T08:03:11;818.60;;;757.07;;
10351;SDS011;5222;49.324;8.420;2022-08-23T08:05:40;815.10;;;753.28;;
10351;SDS011;5222;49.324;8.420;2022-08-23T08:08:07;809.70;;;749.73;;
10351;SDS011;5222;49.324;8.420;2022-08-23T08:10:35;819.90;;;758.90;;
10351;SDS011;5222;49.324;8.420;2022-08-23T08:13:03;814.05;;;752.50;;
10351;SDS011;5222;49.324;8.420;2022-08-23T08:15:31;817.75;;;756.28;;
10351;SDS011;5222;49.324;8.420;2022-08-23T08:17:58;832.60;;;769.22;;
10351;SDS011;5222;49.324;8.420;2022-08-23T08:20:25;824.42;;;761.30;;
10351;SDS011;5222;49.324;8.420;2022-08-23T08:22:54;822.30;;;760.45;;
10351;SDS011;5222;49.324;8.420;2022-08-23T08:25:21;821.22;;;760.53;;
10351;SDS011;5222;49.324;8.420;2022-08-23T08:27:48;828.80;;;766.88;;
10351;SDS011;5222;49.324;8.420;2022-08-23T08:30:15;818.53;;;756.70;;
10351;SDS011;5222;49.324;8.420;2022-08-23T08:32:44;832.83;;;770.50;;
10351;SDS011;5222;49.324;8.420;2022-08-23T08:35:10;828.92;;;766.88;;
10351;SDS011;5222;49.324;8.420;2022-08-23T08:37:37;821.80;;;760.15;;
10351;SDS011;5222;49.324;8.420;2022-08-23T08:40:04;822.60;;;761.83;;
10351;SDS011;5222;49.324;8.420;2022-08-23T08:42:37;821.35;;;760.88;;
10351;SDS011;5222;49.324;8.420;2022-08-23T08:45:15;824.15;;;763.28;;
10351;SDS011;5222;49.324;8.420;2022-08-23T08:47:48;824.80;;;763.63;;
10351;SDS011;5222;49.324;8.420;2022-08-23T08:50:18;822.67;;;762.47;;
10351;SDS011;5222;49.324;8.420;2022-08-23T08:52:51;825.90;;;764.50;;
10351;SDS011;5222;49.324;8.420;2022-08-23T08:55:25;827.60;;;767.05;;
10351;SDS011;5222;49.324;8.420;2022-08-23T08:57:55;813.90;;;753.53;;
10351;SDS011;5222;49.324;8.420;2022-08-23T09:00:23;815.80;;;756.90;;
10351;SDS011;5222;49.324;8.420;2022-08-23T09:02:53;830.75;;;770.05;;
10351;SDS011;5222;49.324;8.420;2022-08-23T09:05:23;825.22;;;764.92;;
10351;SDS011;5222;49.324;8.420;2022-08-23T09:07:58;826.60;;;766.28;;
10351;SDS011;5222;49.324;8.420;2022-08-23T09:10:43;809.88;;;750.10;;
10351;SDS011;5222;49.324;8.420;2022-08-23T09:13:30;815.60;;;755.55;;
10351;SDS011;5222;49.324;8.420;2022-08-23T09:16:26;811.42;;;751.70;;
10351;SDS011;5222;49.324;8.420;2022-08-23T09:19:05;802.35;;;742.85;;
10351;SDS011;5222;49.324;8.420;2022-08-23T09:21:32;802.17;;;742.13;;
10351;SDS011;5222;49.324;8.420;2022-08-23T09:24:08;808.17;;;746.47;;
10351;SDS011;5222;49.324;8.420;2022-08-23T09:26:35;807.70;;;746.97;;
10351;SDS011;5222;49.324;8.420;2022-08-23T09:29:03;807.85;;;747.85;;
10351;SDS011;5222;49.324;8.420;2022-08-23T09:31:40;814.20;;;754.88;;
10351;SDS011;5222;49.324;8.420;2022-08-23T09:34:13;831.03;;;768.33;;
10351;SDS011;5222;49.324;8.420;2022-08-23T09:36:42;827.22;;;766.90;;
10351;SDS011;5222;49.324;8.420;2022-08-23T09:39:23;837.22;;;776.60;;
10351;SDS011;5222;49.324;8.420;2022-08-23T09:41:52;844.53;;;783.37;;
10351;SDS011;5222;49.324;8.420;2022-08-23T09:44:29;861.58;;;799.15;;
10351;SDS011;5222;49.324;8.420;2022-08-23T09:47:04;855.63;;;792.80;;
10351;SDS011;5222;49.324;8.420;2022-08-23T09:49:34;863.33;;;801.00;;
10351;SDS011;5222;49.324;8.420;2022-08-23T09:52:08;843.90;;;783.40;;
10351;SDS011;5222;49.324;8.420;2022-08-23T09:54:39;847.50;;;786.13;;
10351;SDS011;5222;49.324;8.420;2022-08-23T09:57:08;837.05;;;776.67;;
10351;SDS011;5222;49.324;8.420;2022-08-23T09:59:39;838.45;;;778.80;;
10351;SDS011;5222;49.324;8.420;2022-08-23T10:02:12;845.17;;;784.50;;
10351;SDS011;5222;49.324;8.420;2022-08-23T10:04:44;859.03;;;797.03;;
10351;SDS011;5222;49.324;8.420;2022-08-23T10:07:22;841.97;;;781.77;;
10351;SDS011;5222;49.324;8.420;2022-08-23T10:09:53;847.97;;;786.78;;
10351;SDS011;5222;49.324;8.420;2022-08-23T10:12:37;854.78;;;793.90;;
10351;SDS011;5222;49.324;8.420;2022-08-23T10:15:04;853.17;;;792.72;;
10351;SDS011;5222;49.324;8.420;2022-08-23T10:17:36;853.17;;;791.33;;
10351;SDS011;5222;49.324;8.420;2022-08-23T10:20:13;848.63;;;787.53;;
10351;SDS011;5222;49.324;8.420;2022-08-23T10:22:50;844.55;;;783.92;;
10351;SDS011;5222;49.324;8.420;2022-08-23T10:25:25;855.30;;;794.08;;
10351;SDS011;5222;49.324;8.420;2022-08-23T10:28:00;857.75;;;796.55;;
10351;SDS011;5222;49.324;8.420;2022-08-23T10:30:50;854.45;;;793.47;;
10351;SDS011;5222;49.324;8.420;2022-08-23T10:33:25;844.45;;;784.10;;
10351;SDS011;5222;49.324;8.420;2022-08-23T10:36:00;762.58;;;704.25;;
10351;SDS011;5222;49.324;8.420;2022-08-23T10:38:44;752.80;;;694.17;;
10351;SDS011;5222;49.324;8.420;2022-08-23T10:41:24;734.33;;;676.00;;
10351;SDS011;5222;49.324;8.420;2022-08-23T10:44:11;739.10;;;680.00;;
10351;SDS011;5222;49.324;8.420;2022-08-23T10:46:51;735.30;;;677.73;;
10351;SDS011;5222;49.324;8.420;2022-08-23T10:49:27;719.60;;;663.53;;
10351;SDS011;5222;49.324;8.420;2022-08-23T10:51:55;712.17;;;656.25;;
10351;SDS011;5222;49.324;8.420;2022-08-23T10:54:26;735.85;;;678.50;;
10351;SDS011;5222;49.324;8.420;2022-08-23T10:56:59;737.92;;;680.70;;
10351;SDS011;5222;49.324;8.420;2022-08-23T10:59:28;748.22;;;690.53;;
10351;SDS011;5222;49.324;8.420;2022-08-23T11:01:58;755.50;;;696.05;;
10351;SDS011;5222;49.324;8.420;2022-08-23T11:04:33;773.50;;;713.80;;
10351;SDS011;5222;49.324;8.420;2022-08-23T11:07:14;769.10;;;709.95;;
10351;SDS011;5222;49.324;8.420;2022-08-23T11:09:48;769.22;;;710.08;;
10351;SDS011;5222;49.324;8.420;2022-08-23T11:12:22;768.05;;;710.15;;
10351;SDS011;5222;49.324;8.420;2022-08-23T11:15:10;781.97;;;722.08;;
10351;SDS011;5222;49.324;8.420;2022-08-23T11:17:57;772.17;;;712.05;;
10351;SDS011;5222;49.324;8.420;2022-08-23T11:23:40;787.80;;;727.50;;
10351;SDS011;5222;49.324;8.420;2022-08-23T11:26:10;788.15;;;727.92;;
10351;SDS011;5222;49.324;8.420;2022-08-23T11:29:31;792.42;;;732.63;;
10351;SDS011;5222;49.324;8.420;2022-08-23T11:32:18;780.58;;;721.53;;
10351;SDS011;5222;49.324;8.420;2022-08-23T11:35:00;795.57;;;736.33;;
10351;SDS011;5222;49.324;8.420;2022-08-23T11:37:46;803.03;;;742.90;;
10351;SDS011;5222;49.324;8.420;2022-08-23T11:43:09;801.78;;;741.25;;
10351;SDS011;5222;49.324;8.420;2022-08-23T11:45:46;798.30;;;738.95;;
10351;SDS011;5222;49.324;8.420;2022-08-23T11:48:15;807.17;;;747.88;;
10351;SDS011;5222;49.324;8.420;2022-08-23T11:50:47;799.60;;;740.25;;
10351;SDS011;5222;49.324;8.420;2022-08-23T11:53:40;806.10;;;746.42;;
10351;SDS011;5222;49.324;8.420;2022-08-23T11:56:27;792.45;;;733.47;;
10351;SDS011;5222;49.324;8.420;2022-08-23T11:59:16;807.13;;;747.03;;
10351;SDS011;5222;49.324;8.420;2022-08-23T12:02:00;803.40;;;743.35;;
10351;SDS011;5222;49.324;8.420;2022-08-23T12:05:19;806.35;;;745.90;;
10351;SDS011;5222;49.324;8.420;2022-08-23T12:10:59;781.95;;;723.67;;
10351;SDS011;5222;49.324;8.420;2022-08-23T12:13:32;804.15;;;744.45;;
10351;SDS011;5222;49.324;8.420;2022-08-23T12:16:33;864.20;;;800.67;;
10351;SDS011;5222;49.324;8.420;2022-08-23T12:19:16;899.80;;;832.88;;
10351;SDS011;5222;49.324;8.420;2022-08-23T12:22:03;794.30;;;734.47;;
10351;SDS011;5222;49.324;8.420;2022-08-23T12:24:39;825.70;;;765.15;;
10351;SDS011;5222;49.324;8.420;2022-08-23T12:27:24;801.50;;;741.15;;
10351;SDS011;5222;49.324;8.420;2022-08-23T12:29:56;803.05;;;743.25;;
10351;SDS011;5222;49.324;8.420;2022-08-23T12:32:29;798.17;;;738.70;;
10351;SDS011;5222;49.324;8.420;2022-08-23T12:35:08;802.25;;;743.13;;
10351;SDS011;5222;49.324;8.420;2022-08-23T12:37:48;813.25;;;753.25;;
10351;SDS011;5222;49.324;8.420;2022-08-23T12:40:20;800.40;;;740.25;;
10351;SDS011;5222;49.324;8.420;2022-08-23T12:42:51;802.17;;;742.25;;
10351;SDS011;5222;49.324;8.420;2022-08-23T12:45:34;810.83;;;751.42;;
10351;SDS011;5222;49.324;8.420;2022-08-23T12:48:05;806.78;;;746.85;;
10351;SDS011;5222;49.324;8.420;2022-08-23T12:50:35;794.42;;;735.88;;
10351;SDS011;5222;49.324;8.420;2022-08-23T12:53:05;803.10;;;744.03;;
10351;SDS011;5222;49.324;8.420;2022-08-23T12:55:34;807.80;;;747.03;;
10351;SDS011;5222;49.324;8.420;2022-08-23T12:58:03;797.07;;;738.57;;
10351;SDS011;5222;49.324;8.420;2022-08-23T13:00:32;805.60;;;746.25;;
10351;SDS011;5222;49.324;8.420;2022-08-23T13:03:02;812.75;;;752.90;;
10351;SDS011;5222;49.324;8.420;2022-08-23T13:05:35;791.72;;;732.72;;
10351;SDS011;5222;49.324;8.420;2022-08-23T13:08:06;802.08;;;743.53;;
10351;SDS011;5222;49.324;8.420;2022-08-23T13:10:36;815.33;;;755.30;;
10351;SDS011;5222;49.324;8.420;2022-08-23T13:13:06;808.42;;;749.58;;
10351;SDS011;5222;49.324;8.420;2022-08-23T13:15:40;804.33;;;745.37;;
10351;SDS011;5222;49.324;8.420;2022-08-23T13:18:10;806.72;;;747.80;;
10351;SDS011;5222;49.324;8.420;2022-08-23T13:23:43;797.50;;;739.65;;
10351;SDS011;5222;49.324;8.420;2022-08-23T13:29:11;772.33;;;715.08;;
10351;SDS011;5222;49.324;8.420;2022-08-23T13:31:51;766.80;;;709.80;;
10351;SDS011;5222;49.324;8.420;2022-08-23T13:34:31;784.67;;;726.67;;
10351;SDS011;5222;49.324;8.420;2022-08-23T13:37:00;768.20;;;710.30;;
10351;SDS011;5222;49.324;8.420;2022-08-23T13:39:29;760.00;;;701.85;;
10351;SDS011;5222;49.324;8.420;2022-08-23T13:41:57;759.92;;;701.75;;
10351;SDS011;5222;49.324;8.420;2022-08-23T13:44:24;743.85;;;686.80;;
10351;SDS011;5222;49.324;8.420;2022-08-23T13:46:52;751.78;;;694.50;;
10351;SDS011;5222;49.324;8.420;2022-08-23T13:49:20;761.67;;;704.10;;
10351;SDS011;5222;49.324;8.420;2022-08-23T13:52:06;748.35;;;690.70;;
10351;SDS011;5222;49.324;8.420;2022-08-23T13:54:34;746.22;;;689.38;;
10351;SDS011;5222;49.324;8.420;2022-08-23T13:57:04;749.75;;;692.75;;
10351;SDS011;5222;49.324;8.420;2022-08-23T13:59:37;743.47;;;685.78;;
10351;SDS011;5222;49.324;8.420;2022-08-23T14:02:07;747.17;;;690.10;;
10351;SDS011;5222;49.324;8.420;2022-08-23T14:04:37;757.00;;;699.67;;
10351;SDS011;5222;49.324;8.420;2022-08-23T14:07:06;753.50;;;695.95;;
10351;SDS011;5222;49.324;8.420;2022-08-23T14:09:34;755.80;;;699.17;;
10351;SDS011;5222;49.324;8.420;2022-08-23T14:12:05;747.80;;;691.13;;
10351;SDS011;5222;49.324;8.420;2022-08-23T14:14:33;748.40;;;691.50;;
10351;SDS011;5222;49.324;8.420;2022-08-23T14:17:01;746.50;;;689.93;;
10351;SDS011;5222;49.324;8.420;2022-08-23T14:19:28;750.67;;;693.20;;
10351;SDS011;5222;49.324;8.420;2022-08-23T14:21:55;761.92;;;705.08;;
10351;SDS011;5222;49.324;8.420;2022-08-23T14:24:24;748.95;;;691.15;;
10351;SDS011;5222;49.324;8.420;2022-08-23T14:26:51;774.40;;;715.30;;
10351;SDS011;5222;49.324;8.420;2022-08-23T14:29:18;762.70;;;704.60;;
10351;SDS011;5222;49.324;8.420;2022-08-23T14:31:46;762.63;;;704.70;;
10351;SDS011;5222;49.324;8.420;2022-08-23T14:34:12;771.67;;;713.00;;
10351;SDS011;5222;49.324;8.420;2022-08-23T14:36:39;764.85;;;706.03;;
10351;SDS011;5222;49.324;8.420;2022-08-23T14:39:06;762.72;;;705.60;;
10351;SDS011;5222;49.324;8.420;2022-08-23T14:41:34;758.63;;;701.50;;